createdAt,value
2024-04-04T02:04:43.443Z,11.35
2024-04-04T02:07:48.911Z,11.36
2024-04-04T02:10:35.421Z,11.45
2024-04-04T02:13:23.097Z,11.54
2024-04-04T02:16:10.114Z,11.63
2024-04-04T02:18:58.809Z,11.70
2024-04-04T02:21:45.406Z,11.76
2024-04-04T02:24:32.200Z,11.79
2024-04-04T02:27:18.816Z,11.76
2024-04-04T02:30:07.095Z,11.74
2024-04-04T02:32:54.092Z,11.72
2024-04-04T02:35:44.941Z,11.68
2024-04-04T02:38:32.440Z,11.65
2024-04-04T02:41:19.249Z,11.63
2024-04-04T02:44:06.099Z,11.59
2024-04-04T02:46:52.971Z,11.60
2024-04-04T02:49:39.794Z,11.60
2024-04-04T02:52:28.209Z,11.59
2024-04-04T02:55:15.131Z,11.56
2024-04-04T02:58:02.894Z,11.49
2024-04-04T03:00:49.458Z,11.39
2024-04-04T03:03:36.863Z,11.29
2024-04-04T03:06:24.144Z,11.23
2024-04-04T03:09:14.749Z,11.19
2024-04-04T03:12:01.700Z,11.15
2024-04-04T03:14:48.234Z,11.10
2024-04-04T03:17:35.596Z,11.04
2024-04-04T03:20:22.218Z,10.97
2024-04-04T03:23:09.173Z,10.89
2024-04-04T03:25:55.628Z,10.85
2024-04-04T03:28:42.427Z,10.82
2024-04-04T03:31:29.436Z,10.79
2024-04-04T03:34:16.347Z,10.78
2024-04-04T03:37:02.922Z,10.79
2024-04-04T03:39:55.557Z,10.80
2024-04-04T03:42:44.557Z,10.78
2024-04-04T03:45:40.055Z,10.74
2024-04-04T03:48:26.893Z,10.70
2024-04-04T03:51:14.050Z,10.65
2024-04-04T03:54:00.796Z,10.58
2024-04-04T03:56:52.982Z,10.41
2024-04-04T03:59:46.921Z,10.22
2024-04-04T04:02:33.775Z,10.13
2024-04-04T04:05:22.886Z,10.08
2024-04-04T04:08:09.307Z,10.11
2024-04-04T04:10:55.768Z,10.08
2024-04-04T04:13:48.500Z,10.04
2024-04-04T04:16:35.284Z,10.04
2024-04-04T04:19:22.054Z,10.04
2024-04-04T04:22:08.701Z,10.01
2024-04-04T04:24:55.541Z,10.07
2024-04-04T04:27:42.429Z,10.16
2024-04-04T04:30:30.713Z,10.20
2024-04-04T04:33:17.347Z,10.19
2024-04-04T04:36:04.655Z,10.23
2024-04-04T04:38:51.141Z,10.32
2024-04-04T04:41:38.817Z,10.40
2024-04-04T04:44:28.675Z,10.42
2024-04-04T04:47:16.819Z,10.49
2024-04-04T04:50:03.391Z,10.66
2024-04-04T04:52:49.952Z,10.89
2024-04-04T04:55:36.838Z,11.12
2024-04-04T04:58:39.236Z,11.37
2024-04-04T05:01:27.512Z,11.66
2024-04-04T05:04:14.552Z,11.88
2024-04-04T05:07:02.686Z,12.11
2024-04-04T05:09:49.754Z,12.33
2024-04-04T05:12:36.737Z,12.54
2024-04-04T05:15:24.092Z,12.75
2024-04-04T05:18:13.722Z,12.98
2024-04-04T05:21:05.692Z,13.18
2024-04-04T05:23:52.973Z,13.37
2024-04-04T05:26:40.825Z,13.54
2024-04-04T05:29:27.459Z,13.69
2024-04-04T05:32:14.614Z,13.83
2024-04-04T05:35:01.648Z,13.97
2024-04-04T05:37:50.518Z,14.09
2024-04-04T05:40:37.584Z,14.21
2024-04-04T05:43:24.038Z,14.29
2024-04-04T05:46:11.890Z,14.40
2024-04-04T05:48:58.428Z,14.56
2024-04-04T05:51:45.113Z,14.70
2024-04-04T05:55:51.696Z,14.82
2024-04-04T05:58:38.565Z,14.98
2024-04-04T06:01:26.063Z,15.06
2024-04-04T06:04:13.139Z,15.13
2024-04-04T06:06:59.917Z,15.19
2024-04-04T06:09:49.944Z,15.28
2024-04-04T06:12:36.726Z,15.39
2024-04-04T06:15:24.353Z,15.52
2024-04-04T06:18:12.288Z,15.63
2024-04-04T06:21:00.798Z,15.73
2024-04-04T06:23:48.901Z,15.84
2024-04-04T06:26:35.872Z,15.95
2024-04-04T06:29:24.354Z,16.01
2024-04-04T06:32:14.614Z,16.03
2024-04-04T06:35:03.496Z,16.09
2024-04-04T06:37:51.375Z,16.13
2024-04-04T06:40:41.421Z,16.15
2024-04-04T06:43:29.011Z,16.22
2024-04-04T06:46:18.308Z,16.26
2024-04-04T06:49:07.287Z,16.32
2024-04-04T06:51:56.937Z,16.40
2024-04-04T06:54:43.971Z,16.50
2024-04-04T06:57:31.386Z,16.57
2024-04-04T07:00:19.180Z,16.59
2024-04-04T07:03:06.215Z,16.62
2024-04-04T07:05:53.621Z,16.63
2024-04-04T07:08:42.176Z,16.68
2024-04-04T07:11:34.110Z,16.76
2024-04-04T07:14:25.415Z,16.81
2024-04-04T07:17:13.747Z,16.79
2024-04-04T07:20:17.651Z,16.73
2024-04-04T07:26:29.807Z,16.60
2024-04-04T07:29:19.577Z,16.65
2024-04-04T07:32:44.194Z,16.67
2024-04-04T07:35:30.700Z,16.72
2024-04-04T07:38:17.362Z,16.89
2024-04-04T07:41:07.252Z,17.04
2024-04-04T07:43:54.109Z,17.17
2024-04-04T07:49:59.634Z,17.47
2024-04-04T07:53:00.889Z,17.63
2024-04-04T07:55:53.945Z,17.85
2024-04-04T07:58:40.656Z,17.99
2024-04-04T08:01:29.208Z,18.20
2024-04-04T08:04:16.184Z,18.41
2024-04-04T08:07:03.512Z,18.57
2024-04-04T08:09:50.587Z,18.62
2024-04-04T08:12:37.727Z,18.70
2024-04-04T08:15:25.019Z,18.78
2024-04-04T08:18:17.618Z,18.85
2024-04-04T08:21:10.973Z,18.91
2024-04-04T08:23:58.415Z,19.00
2024-04-04T08:26:44.978Z,19.12
2024-04-04T08:29:31.633Z,19.25
2024-04-04T08:32:18.375Z,19.41
2024-04-04T08:35:08.119Z,19.57
2024-04-04T08:37:55.502Z,19.72
2024-04-04T08:40:44.968Z,19.85
2024-04-04T08:43:34.891Z,19.97
2024-04-04T08:46:23.667Z,20.04
2024-04-04T08:49:15.352Z,20.18
2024-04-04T08:52:06.177Z,20.36
2024-04-04T08:54:54.798Z,20.58
2024-04-04T08:57:45.976Z,20.79
2024-04-04T09:00:34.245Z,20.97
2024-04-04T09:03:23.412Z,21.11
2024-04-04T09:06:10.680Z,21.21
2024-04-04T09:09:04.458Z,21.36
2024-04-04T09:12:41.831Z,21.48
2024-04-04T09:15:29.203Z,21.64
2024-04-04T09:18:16.068Z,21.80
2024-04-04T09:21:03.991Z,21.93
2024-04-04T09:23:51.708Z,21.99
2024-04-04T09:27:00.215Z,22.07
2024-04-04T09:29:55.188Z,22.22
2024-04-04T09:32:44.619Z,22.31
2024-04-04T09:35:41.970Z,22.35
2024-04-04T09:38:30.358Z,22.38
2024-04-04T09:45:03.833Z,22.50
2024-04-04T09:47:51.987Z,22.54
2024-04-04T09:54:03.045Z,22.68
2024-04-04T09:56:53.922Z,22.75
2024-04-04T09:59:41.370Z,22.86
2024-04-04T10:02:37.503Z,22.98
2024-04-04T10:05:37.147Z,22.78
2024-04-04T10:08:38.639Z,22.24
2024-04-04T10:11:30.574Z,21.92
2024-04-04T10:14:21.227Z,21.83
2024-04-04T10:17:07.804Z,21.77
2024-04-04T10:20:00.144Z,21.75
2024-04-04T10:23:00.941Z,21.96
2024-04-04T10:25:48.297Z,21.76
2024-04-04T10:28:37.919Z,21.49
2024-04-04T10:31:26.511Z,21.34
2024-04-04T10:34:21.665Z,21.49
2024-04-04T10:37:46.628Z,21.63
2024-04-04T10:40:36.116Z,21.94
2024-04-04T10:43:28.157Z,22.09
2024-04-04T10:46:32.231Z,22.11
2024-04-04T10:49:28.864Z,21.87
2024-04-04T10:52:22.661Z,21.75
2024-04-04T10:55:17.820Z,22.06
2024-04-04T10:58:10.481Z,22.36
2024-04-04T11:00:58.839Z,22.54
2024-04-04T11:03:46.164Z,22.69
2024-04-04T11:06:42.805Z,22.78
2024-04-04T11:09:29.952Z,22.95
2024-04-04T11:12:17.782Z,23.07
2024-04-04T11:15:09.924Z,23.12
2024-04-04T11:18:03.490Z,23.11
2024-04-04T11:20:55.831Z,22.95
2024-04-04T11:23:43.185Z,22.95
2024-04-04T11:26:31.565Z,22.82
2024-04-04T11:29:46.207Z,22.74
2024-04-04T11:36:12.741Z,22.97
2024-04-04T11:39:02.131Z,22.85
2024-04-04T11:41:51.982Z,22.84
2024-04-04T11:44:39.543Z,22.93
2024-04-04T11:47:27.417Z,23.13
2024-04-04T11:50:20.238Z,23.29
2024-04-04T11:53:11.102Z,23.45
2024-04-04T11:56:00.567Z,23.62
2024-04-04T11:58:48.507Z,23.80
2024-04-04T12:01:35.513Z,23.73
2024-04-04T12:04:25.195Z,23.68
2024-04-04T12:07:12.628Z,24.08
2024-04-04T12:09:59.514Z,24.51
2024-04-04T12:12:46.619Z,24.71
2024-04-04T12:15:33.165Z,24.91
2024-04-04T12:18:41.656Z,25.09
2024-04-04T12:21:28.904Z,25.13
2024-04-04T12:24:17.168Z,25.04
2024-04-04T12:27:04.278Z,24.69
2024-04-04T12:29:54.787Z,24.46
2024-04-04T12:32:43.367Z,24.51
2024-04-04T12:35:32.561Z,24.49
2024-04-04T12:38:26.584Z,23.68
2024-04-04T12:41:14.562Z,23.35
2024-04-04T12:44:03.490Z,23.50
2024-04-04T12:46:50.331Z,23.87
2024-04-04T12:49:37.179Z,23.87
2024-04-04T12:52:24.137Z,23.73
2024-04-04T12:55:10.753Z,23.54
2024-04-04T12:57:57.677Z,23.34
2024-04-04T13:00:59.435Z,23.07
2024-04-04T13:03:48.272Z,22.59
2024-04-04T13:06:35.062Z,22.14
2024-04-04T13:09:21.900Z,21.69
2024-04-04T13:12:08.901Z,21.45
2024-04-04T13:14:55.674Z,21.17
2024-04-04T13:17:43.534Z,20.93
2024-04-04T13:20:30.780Z,20.80
2024-04-04T13:23:17.368Z,20.69
2024-04-04T13:26:05.560Z,20.62
2024-04-04T13:28:53.353Z,20.50
2024-04-04T13:31:41.181Z,20.50
2024-04-04T13:34:28.004Z,20.41
2024-04-04T13:37:18.737Z,20.93
2024-04-04T13:40:11.114Z,21.81
2024-04-04T13:42:58.137Z,22.80
2024-04-04T13:45:45.716Z,23.59
2024-04-04T13:48:32.619Z,23.79
2024-04-04T13:51:19.895Z,24.54
2024-04-04T13:54:10.776Z,25.02
2024-04-04T13:56:57.615Z,25.03
2024-04-04T13:59:44.451Z,25.10
2024-04-04T14:02:31.770Z,24.96
2024-04-04T14:05:18.984Z,24.32
2024-04-04T14:08:05.696Z,23.51
2024-04-04T14:10:55.481Z,22.93
2024-04-04T14:13:42.089Z,22.72
2024-04-04T14:16:28.733Z,23.49
2024-04-04T14:19:19.895Z,24.48
2024-04-04T14:22:09.391Z,25.04
2024-04-04T14:24:57.117Z,25.49
2024-04-04T14:27:43.587Z,25.73
2024-04-04T14:30:30.675Z,26.06
2024-04-04T14:33:20.104Z,26.51
2024-04-04T14:36:10.561Z,26.91
2024-04-04T14:38:59.328Z,27.17
2024-04-04T14:41:49.912Z,27.31
2024-04-04T14:44:39.476Z,27.31
2024-04-04T14:47:27.414Z,27.17
2024-04-04T14:50:14.078Z,27.25
2024-04-04T14:53:00.894Z,27.04
2024-04-04T14:55:51.630Z,26.97
2024-04-04T14:58:38.851Z,26.80
2024-04-04T15:01:25.407Z,26.77
2024-04-04T15:04:12.126Z,26.55
2024-04-04T15:07:01.371Z,26.13
2024-04-04T15:09:48.572Z,25.20
2024-04-04T15:12:35.036Z,24.18
2024-04-04T15:15:22.943Z,23.31
2024-04-04T15:18:14.118Z,22.57
2024-04-04T15:21:10.704Z,22.09
2024-04-04T15:24:06.382Z,21.42
2024-04-04T15:26:53.112Z,20.97
2024-04-04T15:29:39.745Z,20.50
2024-04-04T15:32:26.945Z,20.26
2024-04-04T15:35:14.067Z,19.98
2024-04-04T15:38:02.075Z,19.78
2024-04-04T15:40:48.782Z,19.35
2024-04-04T15:43:35.525Z,19.16
2024-04-04T15:46:22.527Z,19.01
2024-04-04T15:49:12.416Z,18.80
2024-04-04T15:51:59.055Z,18.55
2024-04-04T15:54:45.946Z,18.34
2024-04-04T15:57:33.143Z,18.18
2024-04-04T16:00:19.836Z,18.05
2024-04-04T16:03:06.910Z,17.90
2024-04-04T16:05:54.837Z,17.78
2024-04-04T16:08:44.719Z,17.59
2024-04-04T16:11:31.424Z,17.45
2024-04-04T16:14:18.715Z,17.32
2024-04-04T16:17:12.277Z,17.24
2024-04-04T16:19:58.727Z,17.08
2024-04-04T16:22:45.442Z,17.02
2024-04-04T16:25:32.276Z,16.90
2024-04-04T16:28:19.082Z,16.82
2024-04-04T16:31:05.702Z,16.69
2024-04-04T16:33:52.530Z,16.66
2024-04-04T16:36:40.022Z,16.67
2024-04-04T16:39:26.993Z,16.65
2024-04-04T16:42:13.408Z,16.59
2024-04-04T16:45:01.813Z,16.48
2024-04-04T16:47:48.397Z,16.38
2024-04-04T16:50:35.699Z,16.33
2024-04-04T16:53:47.804Z,16.30
2024-04-04T16:56:34.835Z,16.20
2024-04-04T16:59:21.509Z,16.18
2024-04-04T17:02:08.331Z,16.16
2024-04-04T17:04:57.908Z,16.11
2024-04-04T17:07:45.348Z,16.10
2024-04-04T17:10:32.775Z,16.06
2024-04-04T17:13:19.630Z,15.98
2024-04-04T17:16:06.686Z,15.95
2024-04-04T17:18:53.208Z,15.90
2024-04-04T17:21:39.928Z,15.87
2024-04-04T17:24:26.774Z,15.83
2024-04-04T17:27:13.731Z,15.82
2024-04-04T17:30:00.406Z,15.82
2024-04-04T17:32:47.016Z,15.87
2024-04-04T17:35:34.027Z,15.93
2024-04-04T17:38:24.710Z,15.96
2024-04-04T17:41:12.207Z,15.90
2024-04-04T17:44:05.467Z,15.88
2024-04-04T17:46:52.058Z,15.85
2024-04-04T17:49:38.786Z,15.75
2024-04-04T17:52:26.484Z,15.66
2024-04-04T17:55:13.880Z,15.61
2024-04-04T17:58:04.747Z,15.55
2024-04-04T18:00:51.178Z,15.47
2024-04-04T18:03:37.545Z,15.45
2024-04-04T18:06:24.523Z,15.46
2024-04-04T18:09:11.448Z,15.48
2024-04-04T18:11:58.055Z,15.51
2024-04-04T18:14:45.199Z,15.50
2024-04-04T18:17:32.453Z,15.50
2024-04-04T18:20:20.875Z,15.38
2024-04-04T18:23:09.040Z,15.08
2024-04-04T18:25:58.469Z,14.95
2024-04-04T18:28:45.147Z,14.93
2024-04-04T18:31:32.475Z,14.95
2024-04-04T18:34:19.465Z,14.97
2024-04-04T18:37:06.083Z,15.02
2024-04-04T18:39:53.387Z,15.08
2024-04-04T18:42:40.206Z,15.17
2024-04-04T18:45:27.687Z,15.22
2024-04-04T18:48:16.124Z,15.24
2024-04-04T18:51:03.448Z,15.28
2024-04-04T18:53:50.374Z,15.31
2024-04-04T18:56:36.868Z,15.35
2024-04-04T18:59:24.445Z,15.34
2024-04-04T19:02:12.386Z,15.35
2024-04-04T19:04:59.072Z,15.37
2024-04-04T19:07:45.621Z,15.41
2024-04-04T19:10:32.204Z,15.46
2024-04-04T19:13:18.965Z,15.50
2024-04-04T19:16:06.072Z,15.51
2024-04-04T19:18:53.876Z,15.53
2024-04-04T19:21:40.351Z,15.54
2024-04-04T19:24:28.181Z,15.50
2024-04-04T19:27:15.644Z,15.44
2024-04-04T19:30:02.440Z,15.34
2024-04-04T19:32:49.053Z,15.27
2024-04-04T19:35:37.085Z,15.25
2024-04-04T19:38:32.682Z,15.25
2024-04-04T19:41:19.624Z,15.24
2024-04-04T19:44:06.186Z,15.22
2024-04-04T19:46:52.830Z,15.17
2024-04-04T19:49:39.733Z,15.12
2024-04-04T19:52:26.610Z,15.11
2024-04-04T19:55:13.621Z,15.15
2024-04-04T19:58:00.537Z,15.19
2024-04-04T20:00:57.551Z,15.22
2024-04-04T20:03:44.594Z,15.23
2024-04-04T20:06:31.676Z,15.24
2024-04-04T20:09:19.487Z,15.26
2024-04-04T20:12:06.531Z,15.30
2024-04-04T20:14:53.281Z,15.31
2024-04-04T20:17:40.476Z,15.30
2024-04-04T20:20:27.980Z,15.29
2024-04-04T20:23:14.976Z,15.22
2024-04-04T20:26:02.106Z,15.05
2024-04-04T20:28:48.868Z,14.87
2024-04-04T20:31:37.350Z,14.72
2024-04-04T20:34:24.200Z,14.59
2024-04-04T20:37:10.875Z,14.47
2024-04-04T20:39:59.067Z,14.39
2024-04-04T20:42:47.126Z,14.31
2024-04-04T20:45:34.890Z,14.23
2024-04-04T20:48:21.381Z,14.14
2024-04-04T20:51:09.528Z,14.06
2024-04-04T20:53:56.679Z,13.96
2024-04-04T20:56:43.152Z,13.88
2024-04-04T20:59:30.013Z,13.74
2024-04-04T21:02:16.757Z,13.59
2024-04-04T21:05:06.018Z,13.49
2024-04-04T21:07:52.491Z,13.42
2024-04-04T21:10:41.403Z,13.34
2024-04-04T21:13:28.591Z,13.25
2024-04-04T21:16:15.807Z,13.17
2024-04-04T21:19:02.532Z,13.18
2024-04-04T21:21:50.678Z,13.18
2024-04-04T21:24:37.303Z,13.15
2024-04-04T21:27:24.247Z,13.08
2024-04-04T21:30:11.065Z,13.04
2024-04-04T21:32:58.272Z,12.97
2024-04-04T21:35:47.767Z,12.87
2024-04-04T21:38:34.265Z,12.76
2024-04-04T21:41:21.818Z,12.68
2024-04-04T21:44:08.579Z,12.65
2024-04-04T21:46:55.087Z,12.64
2024-04-04T21:49:41.913Z,12.63
2024-04-04T21:52:29.072Z,12.60
2024-04-04T21:55:15.688Z,12.56
2024-04-04T21:58:02.578Z,12.57
2024-04-04T22:00:49.939Z,12.57
2024-04-04T22:03:38.282Z,12.55
2024-04-04T22:06:24.854Z,12.49
2024-04-04T22:09:11.582Z,12.41
2024-04-04T22:11:57.903Z,12.37
2024-04-04T22:14:44.741Z,12.29
2024-04-04T22:17:32.095Z,12.21
2024-04-04T22:20:18.870Z,12.19
2024-04-04T22:23:07.483Z,12.17
2024-04-04T22:25:55.240Z,12.16
2024-04-04T22:28:42.157Z,12.16
2024-04-04T22:31:28.873Z,12.13
2024-04-04T22:34:15.507Z,12.08
2024-04-04T22:37:03.446Z,12.04
2024-04-04T22:39:49.889Z,11.93
2024-04-04T22:42:37.045Z,11.84
2024-04-04T22:45:24.728Z,11.73
2024-04-04T22:48:12.530Z,11.64
2024-04-04T22:50:59.093Z,11.50
2024-04-04T22:53:48.834Z,11.32
2024-04-04T22:56:35.388Z,11.20
2024-04-04T22:59:22.195Z,11.13
2024-04-04T23:02:08.943Z,11.08
2024-04-04T23:04:55.819Z,11.02
2024-04-04T23:07:45.978Z,10.89
2024-04-04T23:10:32.511Z,10.76
2024-04-04T23:13:19.438Z,10.67
2024-04-04T23:16:06.527Z,10.56
2024-04-04T23:18:55.921Z,10.46
2024-04-04T23:21:42.517Z,10.41
2024-04-04T23:24:29.189Z,10.41
2024-04-04T23:27:17.526Z,10.46
2024-04-04T23:30:07.115Z,10.54
2024-04-04T23:32:54.043Z,10.60
2024-04-04T23:35:40.761Z,10.61
2024-04-04T23:38:27.904Z,10.52
2024-04-04T23:41:14.626Z,10.56
2024-04-04T23:44:02.096Z,10.59
2024-04-04T23:46:50.343Z,10.58
2024-04-04T23:49:37.245Z,10.61
2024-04-04T23:52:24.006Z,10.63
2024-04-04T23:55:10.917Z,10.61
2024-04-04T23:57:57.309Z,10.60
